createdAt,value
2018-11-21T00:01:27.090Z,18.83
2018-11-21T00:03:56.439Z,19.73
2018-11-21T00:06:24.843Z,19.93
2018-11-21T00:08:53.235Z,19.37
2018-11-21T00:11:21.690Z,19.73
2018-11-21T00:13:50.217Z,18.93
2018-11-21T00:16:18.597Z,18.50
2018-11-21T00:18:47.004Z,18.37
2018-11-21T00:21:35.099Z,19.17
2018-11-21T00:24:03.615Z,18.37
2018-11-21T00:26:31.997Z,19.00
2018-11-21T00:29:00.484Z,18.93
2018-11-21T00:31:28.865Z,18.67
2018-11-21T00:33:57.299Z,18.57
2018-11-21T00:36:25.669Z,19.20
2018-11-21T00:38:54.086Z,17.50
2018-11-21T00:41:23.280Z,18.27
2018-11-21T00:43:51.654Z,18.57
2018-11-21T00:46:20.073Z,18.10
2018-11-21T00:48:48.608Z,17.73
2018-11-21T00:51:17.010Z,19.13
2018-11-21T00:53:45.414Z,18.60
2018-11-21T00:56:13.798Z,17.60
2018-11-21T00:58:42.176Z,17.70
2018-11-21T01:01:10.595Z,18.50
2018-11-21T01:03:38.983Z,19.60
2018-11-21T01:52:28.548Z,19.73
2018-11-21T01:54:56.966Z,19.30
2018-11-21T01:57:27.704Z,19.67
2018-11-21T01:59:56.194Z,20.10
2018-11-21T02:02:25.040Z,19.73
2018-11-21T02:04:53.463Z,20.10
2018-11-21T02:07:21.858Z,21.43
2018-11-21T02:09:50.254Z,19.87
2018-11-21T02:12:19.554Z,20.17
2018-11-21T02:14:48.000Z,21.07
2018-11-21T02:17:16.396Z,20.03
2018-11-21T02:19:44.778Z,20.17
2018-11-21T02:22:13.221Z,21.00
2018-11-21T02:24:41.911Z,20.37
2018-11-21T02:27:10.336Z,18.67
2018-11-21T02:29:38.741Z,19.83
2018-11-21T02:32:07.373Z,22.23
2018-11-21T02:34:35.815Z,22.00
2018-11-21T02:37:04.593Z,21.17
2018-11-21T02:39:33.036Z,22.80
2018-11-21T02:42:01.434Z,19.90
2018-11-21T02:44:29.859Z,21.13
2018-11-21T02:46:58.327Z,21.67
2018-11-21T02:49:26.983Z,21.80
2018-11-21T02:51:55.369Z,20.37
2018-11-21T02:54:23.799Z,21.43
2018-11-21T02:57:17.392Z,21.13
2018-11-21T02:59:46.138Z,22.07
2018-11-21T03:02:14.746Z,21.27
2018-11-21T03:04:43.130Z,22.03
2018-11-21T03:07:12.583Z,20.77
2018-11-21T03:09:41.150Z,20.60
2018-11-21T03:12:09.977Z,21.53
2018-11-21T03:14:38.348Z,20.93
2018-11-21T03:17:06.814Z,20.57
2018-11-21T03:19:35.265Z,20.63
2018-11-21T03:22:03.634Z,21.80
2018-11-21T03:24:32.018Z,21.13
2018-11-21T03:27:00.401Z,20.90
2018-11-21T03:29:28.827Z,21.93
2018-11-21T03:31:57.380Z,22.17
2018-11-21T03:34:25.773Z,21.67
2018-11-21T03:36:55.096Z,21.00
2018-11-21T03:39:24.537Z,21.20
2018-11-21T03:41:52.915Z,21.63
2018-11-21T03:44:21.305Z,21.70
2018-11-21T03:46:49.872Z,20.90
2018-11-21T03:49:18.301Z,21.03
2018-11-21T03:51:46.800Z,21.53
2018-11-21T03:54:15.211Z,21.67
2018-11-21T03:56:43.606Z,21.87
2018-11-21T03:59:12.056Z,22.37
2018-11-21T04:01:40.569Z,22.97
2018-11-21T04:04:09.561Z,23.97
2018-11-21T04:06:38.017Z,23.47
2018-11-21T04:09:11.021Z,22.47
2018-11-21T04:11:39.518Z,22.87
2018-11-21T04:14:08.277Z,23.33
2018-11-21T04:16:36.717Z,23.73
2018-11-21T04:19:05.244Z,24.40
2018-11-21T04:21:33.849Z,23.00
2018-11-21T04:24:02.237Z,23.03
2018-11-21T04:26:30.643Z,23.53
2018-11-21T04:28:59.019Z,24.07
2018-11-21T04:31:27.430Z,25.00
2018-11-21T04:33:55.868Z,25.07
2018-11-21T04:36:24.350Z,24.73
2018-11-21T04:38:52.705Z,26.07
2018-11-21T04:41:21.152Z,25.63
2018-11-21T04:43:49.585Z,26.87
2018-11-21T04:46:18.100Z,26.90
2018-11-21T04:48:46.433Z,25.70
2018-11-21T04:51:14.870Z,25.83
2018-11-21T04:53:43.295Z,25.90
2018-11-21T04:56:11.693Z,24.27
2018-11-21T04:58:40.066Z,25.73
2018-11-21T05:01:08.461Z,25.90
2018-11-21T05:03:36.886Z,24.47
2018-11-21T05:06:05.697Z,25.63
2018-11-21T05:08:34.502Z,24.20
2018-11-21T05:11:02.887Z,24.93
2018-11-21T05:13:31.431Z,24.60
2018-11-21T05:15:59.810Z,23.77
2018-11-21T05:18:28.197Z,23.23
2018-11-21T05:20:56.633Z,24.93
2018-11-21T05:23:25.025Z,23.70
2018-11-21T05:25:53.428Z,24.87
2018-11-21T05:28:21.911Z,22.67
2018-11-21T05:30:50.325Z,24.73
2018-11-21T05:33:18.726Z,22.60
2018-11-21T05:35:47.093Z,24.90
2018-11-21T05:38:15.558Z,24.53
2018-11-21T05:40:43.939Z,23.57
2018-11-21T05:43:12.334Z,24.17
2018-11-21T05:45:40.761Z,23.17
2018-11-21T05:48:12.169Z,23.97
2018-11-21T05:50:41.763Z,23.87
2018-11-21T05:53:10.266Z,24.37
2018-11-21T05:55:39.524Z,23.70
2018-11-21T05:58:07.975Z,24.07
2018-11-21T06:00:55.758Z,25.73
2018-11-21T06:03:24.183Z,25.00
2018-11-21T06:05:52.815Z,24.77
2018-11-21T06:08:21.226Z,24.10
2018-11-21T06:10:49.766Z,25.40
2018-11-21T06:13:18.151Z,26.23
2018-11-21T06:15:46.564Z,25.80
2018-11-21T06:18:14.992Z,26.27
2018-11-21T06:20:43.386Z,25.50
2018-11-21T06:23:11.797Z,25.57
2018-11-21T06:25:40.215Z,24.33
2018-11-21T06:28:08.600Z,24.77
2018-11-21T06:30:37.071Z,26.97
2018-11-21T06:33:06.009Z,25.27
2018-11-21T06:35:34.432Z,25.70
2018-11-21T06:38:02.870Z,25.40
2018-11-21T06:40:31.298Z,27.80
2018-11-21T06:43:00.392Z,24.03
2018-11-21T06:45:31.867Z,26.80
2018-11-21T06:48:00.269Z,26.10
2018-11-21T06:50:28.629Z,25.90
2018-11-21T06:52:58.055Z,26.30
2018-11-21T06:55:26.482Z,27.23
2018-11-21T06:57:55.304Z,27.27
2018-11-21T07:00:23.785Z,26.37
2018-11-21T07:02:52.232Z,28.30
2018-11-21T07:05:22.254Z,26.57
2018-11-21T07:07:50.560Z,26.40
2018-11-21T07:10:18.980Z,27.27
2018-11-21T07:12:48.349Z,27.73
2018-11-21T07:15:16.758Z,26.90
2018-11-21T07:17:45.358Z,27.03
2018-11-21T07:20:14.186Z,26.00
2018-11-21T07:22:42.790Z,25.70
2018-11-21T07:25:14.775Z,26.87
2018-11-21T07:27:43.225Z,26.03
2018-11-21T07:30:13.341Z,26.10
2018-11-21T07:32:41.796Z,26.43
2018-11-21T07:35:10.580Z,27.80
2018-11-21T07:37:39.830Z,27.50
2018-11-21T07:40:09.626Z,26.37
2018-11-21T07:42:38.114Z,25.47
2018-11-21T07:45:09.000Z,25.77
2018-11-21T07:47:37.901Z,26.97
2018-11-21T07:50:09.269Z,26.83
2018-11-21T07:52:37.747Z,26.53
2018-11-21T07:55:06.778Z,26.00
2018-11-21T07:57:39.220Z,26.37
2018-11-21T08:01:12.612Z,27.20
2018-11-21T08:03:43.026Z,25.10
2018-11-21T08:06:36.485Z,27.10
2018-11-21T08:09:39.329Z,24.97
2018-11-21T08:12:42.152Z,26.33
2018-11-21T08:15:32.620Z,25.87
2018-11-21T08:18:25.594Z,24.80
2018-11-21T08:21:22.448Z,24.57
2018-11-21T08:24:01.980Z,24.33
2018-11-21T08:26:52.505Z,24.77
2018-11-21T08:29:20.958Z,24.63
2018-11-21T08:31:49.360Z,24.67
2018-11-21T08:34:17.767Z,23.90
2018-11-21T08:36:46.175Z,24.73
2018-11-21T08:39:14.577Z,26.30
2018-11-21T08:41:43.026Z,24.80
2018-11-21T08:44:11.410Z,25.37
2018-11-21T08:46:39.813Z,24.70
2018-11-21T08:49:08.226Z,26.17
2018-11-21T08:55:28.532Z,24.80
2018-11-21T08:57:56.921Z,24.93
2018-11-21T09:00:25.336Z,27.30
2018-11-21T09:02:53.843Z,27.13
2018-11-21T09:05:22.247Z,25.17
2018-11-21T09:07:50.630Z,23.37
2018-11-21T09:10:19.064Z,24.90
2018-11-21T09:12:47.474Z,24.73
2018-11-21T09:15:16.991Z,23.50
2018-11-21T09:17:45.856Z,24.57
2018-11-21T09:20:14.486Z,23.20
2018-11-21T09:22:42.859Z,24.30
2018-11-21T09:25:12.043Z,22.93
2018-11-21T09:27:41.243Z,23.10
2018-11-21T09:30:11.161Z,24.40
2018-11-21T09:32:39.614Z,22.63
2018-11-21T09:35:09.638Z,22.70
2018-11-21T09:37:38.094Z,23.13
2018-11-21T09:40:09.217Z,23.00
2018-11-21T09:42:37.950Z,22.60
2018-11-21T09:45:08.134Z,22.77
2018-11-21T09:47:36.611Z,22.53
2018-11-21T09:50:11.177Z,20.43
2018-11-21T09:52:40.536Z,22.50
2018-11-21T09:55:08.239Z,23.07
2018-11-21T09:57:36.775Z,22.83
2018-11-21T10:00:44.334Z,22.17
2018-11-21T10:03:17.302Z,22.17
2018-11-21T10:05:47.992Z,21.97
2018-11-21T10:08:32.417Z,22.07
2018-11-21T10:11:00.765Z,21.67
2018-11-21T10:13:29.140Z,19.87
2018-11-21T10:16:01.032Z,21.07
2018-11-21T10:18:27.018Z,22.00
2018-11-21T10:20:54.308Z,21.93
2018-11-21T10:23:22.703Z,20.50
2018-11-21T10:25:51.104Z,21.90
2018-11-21T10:28:19.477Z,22.27
2018-11-21T10:30:47.837Z,22.83
2018-11-21T10:33:16.254Z,22.23
2018-11-21T10:35:44.699Z,22.83
2018-11-21T10:38:13.379Z,22.03
2018-11-21T10:40:41.794Z,21.30
2018-11-21T10:43:10.208Z,22.70
2018-11-21T10:45:38.608Z,21.00
2018-11-21T10:48:07.035Z,22.03
2018-11-21T10:50:35.418Z,21.27
2018-11-21T10:53:03.849Z,22.00
2018-11-21T10:55:32.234Z,20.73
2018-11-21T10:58:01.092Z,22.37
2018-11-21T11:00:47.227Z,23.30
2018-11-21T11:03:23.487Z,23.20
2018-11-21T11:06:22.799Z,21.83
2018-11-21T11:09:08.919Z,21.93
2018-11-21T11:11:59.400Z,22.57
2018-11-21T11:14:45.824Z,21.87
2018-11-21T11:17:38.114Z,22.20
2018-11-21T11:20:27.269Z,21.90
2018-11-21T11:23:13.630Z,20.67
2018-11-21T11:26:16.379Z,21.67
2018-11-21T11:29:01.518Z,21.60
2018-11-21T11:31:58.276Z,22.13
2018-11-21T11:34:44.652Z,21.83
2018-11-21T11:37:31.104Z,23.27
2018-11-21T11:40:17.211Z,21.57
2018-11-21T11:43:03.715Z,22.53
2018-11-21T11:45:51.241Z,22.93
2018-11-21T11:48:38.866Z,22.60
2018-11-21T11:51:25.539Z,20.90
2018-11-21T11:54:11.892Z,21.97
2018-11-21T11:56:51.275Z,22.93
2018-11-21T11:59:30.919Z,22.33
2018-11-21T12:02:18.509Z,22.63
2018-11-21T12:05:21.384Z,23.83
2018-11-21T12:08:07.442Z,22.10
2018-11-21T12:10:53.550Z,22.30
2018-11-21T12:13:47.159Z,22.57
2018-11-21T12:16:49.698Z,21.27
2018-11-21T12:19:32.385Z,21.50
2018-11-21T12:22:14.279Z,22.80
2018-11-21T12:39:09.229Z,22.57
2018-11-21T12:42:09.003Z,22.17
2018-11-21T12:45:01.741Z,22.37
2018-11-21T12:47:58.467Z,22.07
2018-11-21T12:50:41.695Z,22.13
2018-11-21T12:53:44.335Z,21.20
2018-11-21T12:56:30.720Z,21.47
2018-11-21T12:59:24.167Z,21.80
2018-11-21T13:02:17.531Z,22.03
2018-11-21T13:05:09.172Z,21.53
2018-11-21T13:07:55.577Z,21.83
2018-11-21T13:10:42.025Z,20.93
2018-11-21T13:13:24.401Z,21.73
2018-11-21T13:16:11.916Z,22.53
2018-11-21T13:19:14.570Z,22.37
2018-11-21T13:22:00.849Z,22.47
2018-11-21T13:24:47.135Z,21.57
2018-11-21T13:27:29.148Z,22.10
2018-11-21T13:30:12.448Z,22.40
2018-11-21T13:33:05.763Z,21.90
2018-11-21T13:35:52.253Z,21.97
2018-11-21T13:38:39.799Z,20.77
2018-11-21T13:41:18.796Z,21.33
2018-11-21T13:44:05.205Z,20.90
2018-11-21T13:46:39.844Z,21.77
2018-11-21T13:49:26.037Z,21.90
2018-11-21T13:52:13.554Z,21.50
2018-11-21T13:58:27.517Z,20.37
2018-11-21T14:00:55.936Z,20.93
2018-11-21T14:03:24.368Z,22.33
2018-11-21T14:05:52.754Z,21.90
2018-11-21T14:08:21.151Z,21.00
2018-11-21T14:10:49.528Z,21.30
2018-11-21T14:13:17.895Z,21.53
2018-11-21T14:15:46.296Z,21.10
2018-11-21T14:18:14.667Z,22.60
2018-11-21T14:20:43.056Z,21.83
2018-11-21T14:23:11.479Z,21.60
2018-11-21T14:25:39.900Z,21.77
2018-11-21T14:28:08.287Z,21.87
2018-11-21T14:30:36.719Z,20.43
2018-11-21T14:33:05.727Z,20.87
2018-11-21T14:35:34.140Z,20.57
2018-11-21T14:38:02.483Z,22.67
2018-11-21T14:40:30.867Z,21.10
2018-11-21T14:42:59.616Z,21.17
2018-11-21T14:45:27.991Z,21.47
2018-11-21T14:47:56.377Z,21.20
2018-11-21T14:50:27.114Z,21.83
2018-11-21T14:52:55.498Z,21.13
2018-11-21T14:55:23.902Z,20.97
2018-11-21T14:57:52.298Z,21.53
2018-11-21T15:00:21.425Z,19.50
2018-11-21T15:02:49.864Z,21.87
2018-11-21T15:05:18.361Z,19.50
2018-11-21T15:07:47.155Z,21.30
2018-11-21T15:10:15.612Z,21.13
2018-11-21T15:12:43.966Z,21.03
2018-11-21T15:15:14.727Z,20.73
2018-11-21T15:17:43.135Z,20.33
2018-11-21T15:20:16.813Z,19.73
2018-11-21T15:22:45.207Z,21.33
2018-11-21T15:25:15.088Z,20.57
2018-11-21T15:27:43.552Z,19.97
2018-11-21T15:30:14.818Z,20.47
2018-11-21T15:32:43.374Z,21.90
2018-11-21T15:35:11.805Z,20.73
2018-11-21T15:37:40.992Z,20.77
2018-11-21T15:40:14.535Z,20.17
2018-11-21T15:42:43.017Z,21.40
2018-11-21T15:45:13.943Z,20.57
2018-11-21T15:47:42.502Z,20.13
2018-11-21T15:50:13.478Z,20.17
2018-11-21T15:52:42.084Z,20.37
2018-11-21T15:55:11.795Z,20.47
2018-11-21T15:57:40.193Z,20.80
2018-11-21T16:00:15.981Z,20.93
2018-11-21T16:02:45.269Z,20.40
2018-11-21T16:05:14.057Z,20.87
2018-11-21T16:07:42.459Z,20.93
2018-11-21T16:10:18.592Z,19.47
2018-11-21T16:12:41.141Z,19.97
2018-11-21T16:15:15.474Z,19.67
2018-11-21T16:17:43.910Z,20.93
2018-11-21T16:20:13.641Z,20.47
2018-11-21T16:22:42.068Z,20.80
2018-11-21T16:25:12.347Z,20.17
2018-11-21T16:27:41.340Z,19.40
2018-11-21T16:30:11.899Z,20.17
